createdAt,value
2022-08-19T00:01:53.159Z,77.00
2022-08-19T00:03:50.821Z,77.00
2022-08-19T00:05:50.726Z,77.00
2022-08-19T00:07:50.752Z,77.00
2022-08-19T00:09:50.697Z,77.00
2022-08-19T00:11:50.693Z,77.00
2022-08-19T00:13:50.731Z,77.00
2022-08-19T00:15:50.790Z,77.00
2022-08-19T00:17:50.757Z,77.00
2022-08-19T00:19:50.701Z,77.00
2022-08-19T00:21:50.693Z,78.00
2022-08-19T00:23:50.732Z,78.00
2022-08-19T00:25:50.712Z,78.00
2022-08-19T00:27:50.729Z,78.00
2022-08-19T00:29:52.386Z,78.00
2022-08-19T00:31:50.837Z,78.00
2022-08-19T00:33:50.721Z,78.00
2022-08-19T00:35:53.879Z,78.00
2022-08-19T00:37:50.801Z,79.00
2022-08-19T00:39:50.752Z,79.00
2022-08-19T00:41:50.774Z,79.00
2022-08-19T00:43:50.785Z,79.00
2022-08-19T00:45:50.707Z,79.00
2022-08-19T00:47:50.741Z,79.00
2022-08-19T00:49:50.810Z,79.00
2022-08-19T00:51:50.836Z,79.00
2022-08-19T00:53:50.828Z,79.00
2022-08-19T00:55:51.322Z,79.00
2022-08-19T00:57:50.785Z,79.00
2022-08-19T01:00:00.395Z,80.00
2022-08-19T01:01:50.897Z,80.00
2022-08-19T01:03:57.749Z,80.00
2022-08-19T01:05:50.801Z,80.00
2022-08-19T01:07:50.890Z,80.00
2022-08-19T01:09:50.845Z,80.00
2022-08-19T01:11:50.788Z,80.00
2022-08-19T01:13:50.774Z,80.00
2022-08-19T01:15:50.832Z,80.00
2022-08-19T01:17:50.781Z,80.00
2022-08-19T01:19:50.879Z,80.00
2022-08-19T01:21:50.832Z,80.00
2022-08-19T01:25:50.841Z,80.00
2022-08-19T01:31:59.255Z,81.00
2022-08-19T01:33:59.229Z,81.00
2022-08-19T01:35:59.261Z,81.00
2022-08-19T01:37:59.260Z,81.00
2022-08-19T01:39:59.317Z,81.00
2022-08-19T01:41:59.271Z,81.00
2022-08-19T01:44:13.156Z,81.00
2022-08-19T01:45:59.271Z,81.00
2022-08-19T01:48:01.827Z,81.00
2022-08-19T01:49:59.268Z,81.00
2022-08-19T01:51:59.288Z,81.00
2022-08-19T01:53:59.390Z,81.00
2022-08-19T01:55:59.244Z,81.00
2022-08-19T01:57:59.240Z,81.00
2022-08-19T01:59:59.255Z,81.00
2022-08-19T02:01:59.246Z,81.00
2022-08-19T02:03:59.289Z,81.00
2022-08-19T02:05:59.261Z,81.00
2022-08-19T02:08:29.292Z,81.00
2022-08-19T02:10:29.284Z,81.00
2022-08-19T02:12:29.265Z,81.00
2022-08-19T02:14:29.253Z,81.00
2022-08-19T02:16:29.350Z,81.00
2022-08-19T02:18:29.276Z,81.00
2022-08-19T02:20:29.275Z,81.00
2022-08-19T02:22:29.280Z,81.00
2022-08-19T02:24:29.291Z,81.00
2022-08-19T02:26:29.286Z,81.00
2022-08-19T02:28:29.276Z,81.00
2022-08-19T02:30:29.284Z,81.00
2022-08-19T02:32:29.282Z,81.00
2022-08-19T02:34:29.369Z,81.00
2022-08-19T02:36:29.252Z,81.00
2022-08-19T02:38:29.281Z,81.00
2022-08-19T02:40:29.301Z,81.00
2022-08-19T02:42:29.354Z,81.00
2022-08-19T02:44:31.811Z,81.00
2022-08-19T02:46:29.301Z,81.00
2022-08-19T02:48:29.359Z,81.00
2022-08-19T02:50:29.311Z,81.00
2022-08-19T02:52:29.301Z,81.00
2022-08-19T02:54:29.294Z,81.00
2022-08-19T02:56:29.295Z,81.00
2022-08-19T02:58:29.360Z,81.00
2022-08-19T03:00:29.325Z,81.00
2022-08-19T03:02:29.328Z,81.00
2022-08-19T03:04:29.375Z,81.00
2022-08-19T03:06:29.310Z,81.00
2022-08-19T03:08:29.321Z,81.00
2022-08-19T03:10:29.332Z,82.00
2022-08-19T03:12:29.338Z,81.00
2022-08-19T03:14:29.361Z,82.00
2022-08-19T03:16:29.400Z,82.00
2022-08-19T03:18:29.354Z,82.00
2022-08-19T03:20:29.328Z,82.00
2022-08-19T03:22:29.321Z,82.00
2022-08-19T03:24:29.357Z,82.00
2022-08-19T03:26:29.346Z,82.00
2022-08-19T03:28:29.364Z,82.00
2022-08-19T03:30:29.332Z,82.00
2022-08-19T03:32:33.065Z,82.00
2022-08-19T03:34:29.315Z,82.00
2022-08-19T03:36:29.580Z,82.00
2022-08-19T03:38:29.400Z,82.00
2022-08-19T03:40:29.333Z,82.00
2022-08-19T03:42:38.765Z,82.00
2022-08-19T03:44:29.343Z,82.00
2022-08-19T03:46:29.358Z,82.00
2022-08-19T03:48:29.374Z,82.00
2022-08-19T03:50:29.413Z,82.00
2022-08-19T03:52:29.340Z,82.00
2022-08-19T03:54:29.340Z,82.00
2022-08-19T03:56:29.356Z,82.00
2022-08-19T03:58:29.348Z,82.00
2022-08-19T04:00:29.380Z,82.00
2022-08-19T04:02:29.366Z,82.00
2022-08-19T04:04:29.521Z,82.00
2022-08-19T04:06:29.331Z,82.00
2022-08-19T04:08:29.441Z,83.00
2022-08-19T04:10:59.365Z,83.00
2022-08-19T04:12:59.376Z,83.00
2022-08-19T04:14:59.373Z,83.00
2022-08-19T04:16:59.421Z,83.00
2022-08-19T04:18:59.853Z,83.00
2022-08-19T04:20:59.349Z,83.00
2022-08-19T04:22:59.364Z,83.00
2022-08-19T04:24:59.401Z,83.00
2022-08-19T04:26:59.364Z,83.00
2022-08-19T04:28:59.357Z,83.00
2022-08-19T04:30:59.381Z,83.00
2022-08-19T04:32:59.363Z,83.00
2022-08-19T04:35:02.828Z,83.00
2022-08-19T04:36:59.381Z,83.00
2022-08-19T04:38:59.365Z,83.00
2022-08-19T04:40:59.381Z,83.00
2022-08-19T04:42:59.399Z,83.00
2022-08-19T04:44:59.393Z,83.00
2022-08-19T04:46:59.365Z,83.00
2022-08-19T04:48:59.375Z,83.00
2022-08-19T04:50:59.361Z,83.00
2022-08-19T04:52:59.402Z,83.00
2022-08-19T04:54:59.385Z,83.00
2022-08-19T04:56:59.406Z,83.00
2022-08-19T04:58:59.369Z,83.00
2022-08-19T05:00:59.437Z,83.00
2022-08-19T05:02:59.395Z,83.00
2022-08-19T05:04:59.386Z,83.00
2022-08-19T05:07:00.803Z,83.00
2022-08-19T05:08:59.396Z,83.00
2022-08-19T05:10:59.396Z,83.00
2022-08-19T05:12:59.434Z,83.00
2022-08-19T05:14:59.458Z,83.00
2022-08-19T05:17:25.679Z,83.00
2022-08-19T05:18:59.408Z,83.00
2022-08-19T05:20:59.493Z,83.00
2022-08-19T05:22:59.483Z,83.00
2022-08-19T05:25:12.314Z,83.00
2022-08-19T05:26:59.410Z,83.00
2022-08-19T05:28:59.447Z,83.00
2022-08-19T05:30:59.416Z,83.00
2022-08-19T05:32:59.429Z,83.00
2022-08-19T05:34:59.499Z,83.00
2022-08-19T05:36:59.471Z,83.00
2022-08-19T05:38:59.520Z,83.00
2022-08-19T05:40:59.575Z,83.00
2022-08-19T05:42:59.412Z,83.00
2022-08-19T05:44:59.412Z,83.00
2022-08-19T05:46:59.426Z,83.00
2022-08-19T05:48:59.432Z,83.00
2022-08-19T05:50:59.450Z,83.00
2022-08-19T05:52:59.439Z,83.00
2022-08-19T05:54:59.435Z,83.00
2022-08-19T05:56:59.399Z,83.00
2022-08-19T05:58:59.461Z,83.00
2022-08-19T06:00:59.461Z,83.00
2022-08-19T06:02:59.484Z,83.00
2022-08-19T06:04:59.466Z,83.00
2022-08-19T06:06:59.408Z,83.00
2022-08-19T06:08:59.415Z,83.00
2022-08-19T06:10:59.468Z,83.00
2022-08-19T06:13:29.554Z,83.00
2022-08-19T06:15:29.447Z,83.00
2022-08-19T06:17:29.448Z,83.00
2022-08-19T06:19:29.445Z,83.00
2022-08-19T06:21:29.451Z,83.00
2022-08-19T06:23:29.480Z,83.00
2022-08-19T06:25:30.615Z,83.00
2022-08-19T06:27:29.567Z,83.00
2022-08-19T06:29:29.439Z,83.00
2022-08-19T06:31:29.444Z,83.00
2022-08-19T06:33:29.439Z,83.00
2022-08-19T06:35:29.515Z,83.00
2022-08-19T06:37:29.455Z,83.00
2022-08-19T06:39:29.554Z,83.00
2022-08-19T06:41:29.487Z,83.00
2022-08-19T06:43:29.639Z,83.00
2022-08-19T06:45:34.984Z,83.00
2022-08-19T06:47:29.494Z,83.00
2022-08-19T06:49:29.477Z,83.00
2022-08-19T06:51:29.457Z,83.00
2022-08-19T06:53:29.538Z,83.00
2022-08-19T06:55:29.470Z,83.00
2022-08-19T06:57:29.491Z,83.00
2022-08-19T06:59:29.481Z,83.00
2022-08-19T07:01:29.469Z,83.00
2022-08-19T07:03:29.504Z,83.00
2022-08-19T07:05:29.527Z,83.00
2022-08-19T07:07:29.479Z,83.00
2022-08-19T07:09:29.489Z,83.00
2022-08-19T07:11:29.468Z,83.00
2022-08-19T07:13:29.498Z,83.00
2022-08-19T07:15:29.472Z,83.00
2022-08-19T07:17:29.473Z,83.00
2022-08-19T07:19:29.546Z,83.00
2022-08-19T07:21:29.716Z,83.00
2022-08-19T07:23:29.573Z,83.00
2022-08-19T07:25:32.556Z,83.00
2022-08-19T07:27:29.499Z,83.00
2022-08-19T07:29:29.472Z,83.00
2022-08-19T07:31:31.217Z,83.00
2022-08-19T07:33:29.513Z,83.00
2022-08-19T07:35:29.522Z,83.00
2022-08-19T07:37:32.502Z,83.00
2022-08-19T07:39:29.675Z,83.00
2022-08-19T07:41:29.558Z,83.00
2022-08-19T07:43:31.436Z,83.00
2022-08-19T07:45:29.479Z,83.00
2022-08-19T07:47:49.241Z,83.00
2022-08-19T07:49:29.548Z,83.00
2022-08-19T07:51:36.901Z,83.00
2022-08-19T07:53:29.517Z,83.00
2022-08-19T07:55:43.256Z,83.00
2022-08-19T07:57:29.532Z,83.00
2022-08-19T07:59:29.518Z,83.00
2022-08-19T08:01:29.593Z,83.00
2022-08-19T08:03:29.513Z,83.00
2022-08-19T08:05:29.522Z,83.00
2022-08-19T08:07:31.559Z,83.00
2022-08-19T08:09:29.538Z,83.00
2022-08-19T08:12:04.847Z,83.00
2022-08-19T08:14:00.892Z,83.00
2022-08-19T08:15:59.515Z,83.00
2022-08-19T08:17:59.500Z,83.00
2022-08-19T08:19:59.551Z,83.00
2022-08-19T08:21:59.553Z,83.00
2022-08-19T08:25:59.548Z,83.00
2022-08-19T08:27:59.507Z,83.00
2022-08-19T08:29:59.564Z,83.00
2022-08-19T08:31:59.797Z,83.00
2022-08-19T08:33:59.528Z,83.00
2022-08-19T08:35:59.629Z,83.00
2022-08-19T08:37:59.665Z,83.00
2022-08-19T08:39:59.659Z,83.00
2022-08-19T08:41:59.637Z,83.00
2022-08-19T08:43:59.653Z,83.00
2022-08-19T08:45:59.553Z,83.00
2022-08-19T08:47:59.549Z,83.00
2022-08-19T08:52:00.372Z,82.00
2022-08-19T08:55:57.470Z,82.00
2022-08-19T08:57:57.546Z,82.00
2022-08-19T08:59:57.529Z,82.00
2022-08-19T09:01:57.563Z,82.00
2022-08-19T09:03:57.539Z,82.00
2022-08-19T09:05:57.477Z,82.00
2022-08-19T09:07:57.620Z,82.00
2022-08-19T09:09:57.612Z,82.00
2022-08-19T09:11:57.575Z,82.00
2022-08-19T09:13:57.519Z,82.00
2022-08-19T09:15:57.596Z,82.00
2022-08-19T09:17:57.526Z,82.00
2022-08-19T09:19:57.531Z,82.00
2022-08-19T09:21:57.494Z,82.00
2022-08-19T09:23:57.583Z,82.00
2022-08-19T09:25:57.658Z,82.00
2022-08-19T09:28:02.955Z,82.00
2022-08-19T09:29:57.524Z,82.00
2022-08-19T09:31:57.509Z,82.00
2022-08-19T09:33:57.519Z,82.00
2022-08-19T09:35:57.536Z,82.00
2022-08-19T09:37:59.587Z,81.00
2022-08-19T09:39:57.627Z,81.00
2022-08-19T09:41:57.597Z,81.00
2022-08-19T09:43:57.553Z,81.00
2022-08-19T09:45:57.613Z,81.00
2022-08-19T09:47:57.646Z,80.00
2022-08-19T09:49:57.596Z,80.00
2022-08-19T09:51:57.571Z,80.00
2022-08-19T09:53:57.615Z,80.00
2022-08-19T09:55:57.552Z,80.00
2022-08-19T09:57:57.520Z,80.00
2022-08-19T09:59:57.533Z,80.00
2022-08-19T10:01:57.542Z,80.00
2022-08-19T10:04:27.541Z,80.00
2022-08-19T10:06:46.120Z,80.00
2022-08-19T10:08:27.546Z,80.00
2022-08-19T10:10:27.628Z,80.00
2022-08-19T10:12:27.568Z,80.00
2022-08-19T10:14:27.548Z,80.00
2022-08-19T10:16:30.367Z,80.00
2022-08-19T10:18:27.586Z,80.00
2022-08-19T10:20:27.579Z,80.00
2022-08-19T10:22:27.572Z,80.00
2022-08-19T10:24:27.632Z,80.00
2022-08-19T10:26:28.008Z,80.00
2022-08-19T10:28:27.650Z,80.00
2022-08-19T10:30:27.624Z,80.00
2022-08-19T10:32:34.183Z,80.00
2022-08-19T10:34:28.520Z,80.00
2022-08-19T10:36:27.609Z,80.00
2022-08-19T10:38:31.359Z,80.00
2022-08-19T10:40:27.707Z,80.00
2022-08-19T10:42:27.641Z,81.00
2022-08-19T10:44:32.254Z,81.00
2022-08-19T10:46:27.660Z,81.00
2022-08-19T10:48:27.612Z,81.00
2022-08-19T10:50:28.725Z,81.00
2022-08-19T10:52:32.428Z,81.00
2022-08-19T10:54:29.529Z,81.00
2022-08-19T10:56:27.556Z,81.00
2022-08-19T10:58:27.701Z,81.00
2022-08-19T11:00:27.696Z,81.00
2022-08-19T11:02:27.687Z,81.00
2022-08-19T11:04:28.846Z,81.00
2022-08-19T11:06:27.704Z,81.00
2022-08-19T11:08:27.612Z,82.00
2022-08-19T11:10:27.663Z,82.00
2022-08-19T11:12:27.598Z,82.00
2022-08-19T11:14:27.600Z,82.00
2022-08-19T11:16:27.690Z,82.00
2022-08-19T11:18:27.683Z,82.00
2022-08-19T11:20:27.608Z,82.00
2022-08-19T11:22:31.771Z,82.00
2022-08-19T11:24:27.632Z,82.00
2022-08-19T11:26:27.647Z,82.00
2022-08-19T11:28:27.685Z,82.00
2022-08-19T11:30:27.636Z,82.00
2022-08-19T11:32:27.582Z,82.00
2022-08-19T11:34:27.587Z,82.00
2022-08-19T11:36:27.701Z,82.00
2022-08-19T11:38:27.636Z,82.00
2022-08-19T11:40:27.656Z,82.00
2022-08-19T11:42:27.587Z,82.00
2022-08-19T11:44:27.599Z,82.00
2022-08-19T11:46:27.598Z,82.00
2022-08-19T11:48:27.628Z,82.00
2022-08-19T11:50:27.633Z,83.00
2022-08-19T11:52:27.735Z,83.00
2022-08-19T11:54:27.678Z,83.00
2022-08-19T11:56:27.674Z,83.00
2022-08-19T11:58:27.605Z,83.00
2022-08-19T12:00:27.676Z,83.00
2022-08-19T12:02:57.708Z,83.00
2022-08-19T12:04:57.605Z,83.00
2022-08-19T12:06:57.655Z,83.00
2022-08-19T12:08:57.639Z,83.00
2022-08-19T12:10:57.695Z,83.00
2022-08-19T12:12:58.970Z,83.00
2022-08-19T12:14:57.679Z,83.00
2022-08-19T12:16:57.710Z,83.00
2022-08-19T12:18:57.735Z,83.00
2022-08-19T12:20:57.674Z,83.00
2022-08-19T12:22:57.745Z,83.00
2022-08-19T12:24:57.657Z,83.00
2022-08-19T12:27:00.794Z,83.00
2022-08-19T12:28:58.715Z,83.00
2022-08-19T12:30:57.733Z,84.00
2022-08-19T12:32:57.668Z,84.00
2022-08-19T12:34:57.678Z,84.00
2022-08-19T12:36:57.682Z,84.00
2022-08-19T12:38:57.659Z,84.00
2022-08-19T12:41:00.322Z,84.00
2022-08-19T12:42:57.627Z,84.00
2022-08-19T12:44:57.704Z,84.00
2022-08-19T12:46:57.781Z,84.00
2022-08-19T12:48:57.627Z,84.00
2022-08-19T12:50:57.792Z,84.00
2022-08-19T12:52:57.650Z,84.00
2022-08-19T12:54:57.666Z,84.00
2022-08-19T12:56:57.668Z,84.00
2022-08-19T12:58:57.720Z,84.00
2022-08-19T13:00:57.745Z,84.00
2022-08-19T13:02:57.717Z,84.00
2022-08-19T13:04:57.765Z,84.00
2022-08-19T13:06:57.686Z,84.00
2022-08-19T13:08:59.631Z,84.00
2022-08-19T13:10:57.714Z,84.00
2022-08-19T13:12:57.710Z,84.00
2022-08-19T13:14:57.728Z,84.00
2022-08-19T13:16:57.762Z,84.00
2022-08-19T13:18:57.681Z,84.00
2022-08-19T13:20:57.783Z,84.00
2022-08-19T13:22:57.763Z,84.00
2022-08-19T13:24:57.799Z,84.00
2022-08-19T13:26:57.713Z,84.00
2022-08-19T13:28:57.799Z,84.00
2022-08-19T13:30:57.762Z,84.00
2022-08-19T13:32:57.752Z,84.00
2022-08-19T13:34:57.784Z,84.00
2022-08-19T13:36:57.771Z,84.00
2022-08-19T13:38:57.809Z,84.00
2022-08-19T13:40:57.689Z,84.00
2022-08-19T13:42:57.696Z,84.00
2022-08-19T13:44:57.750Z,84.00
2022-08-19T13:46:57.755Z,84.00
2022-08-19T13:48:57.775Z,84.00
2022-08-19T13:50:57.782Z,84.00
2022-08-19T13:52:57.816Z,84.00
2022-08-19T13:54:57.729Z,84.00
2022-08-19T13:56:57.747Z,84.00
2022-08-19T13:58:59.356Z,84.00
2022-08-19T14:01:27.770Z,84.00
2022-08-19T14:03:27.748Z,84.00
2022-08-19T14:05:27.734Z,84.00
2022-08-19T14:07:27.748Z,84.00
2022-08-19T14:09:27.711Z,84.00
2022-08-19T14:11:27.718Z,84.00
2022-08-19T14:13:27.716Z,84.00
2022-08-19T14:15:27.731Z,84.00
2022-08-19T14:17:27.724Z,84.00
2022-08-19T14:19:30.071Z,84.00
2022-08-19T14:21:27.702Z,84.00
2022-08-19T14:23:27.759Z,84.00
2022-08-19T14:25:27.726Z,84.00
2022-08-19T14:27:27.746Z,84.00
2022-08-19T14:29:27.717Z,84.00
2022-08-19T14:31:30.694Z,84.00
2022-08-19T14:33:28.425Z,84.00
2022-08-19T14:35:27.747Z,84.00
2022-08-19T14:37:27.748Z,84.00
2022-08-19T14:39:27.754Z,84.00
2022-08-19T14:41:27.738Z,84.00
2022-08-19T14:43:27.724Z,84.00
2022-08-19T14:45:27.811Z,84.00
2022-08-19T14:47:27.786Z,84.00
2022-08-19T14:49:34.673Z,84.00
2022-08-19T14:51:27.821Z,84.00
2022-08-19T14:53:27.816Z,84.00
2022-08-19T14:55:27.763Z,84.00
2022-08-19T14:57:27.744Z,84.00
2022-08-19T14:59:27.744Z,85.00
2022-08-19T15:01:27.850Z,84.00
2022-08-19T15:03:27.766Z,84.00
2022-08-19T15:05:27.863Z,84.00
2022-08-19T15:07:28.301Z,85.00
2022-08-19T15:09:27.920Z,85.00
2022-08-19T15:11:27.798Z,84.00
2022-08-19T15:13:27.944Z,84.00
2022-08-19T15:15:27.812Z,85.00
2022-08-19T15:17:43.353Z,85.00
2022-08-19T15:19:27.803Z,85.00
2022-08-19T15:21:27.931Z,85.00
2022-08-19T15:23:27.860Z,85.00
2022-08-19T15:25:27.907Z,85.00
2022-08-19T15:27:27.928Z,85.00
2022-08-19T15:29:27.820Z,85.00
2022-08-19T15:31:28.861Z,85.00
2022-08-19T15:33:27.827Z,85.00
2022-08-19T15:35:27.848Z,85.00
2022-08-19T15:37:27.856Z,85.00
2022-08-19T15:39:27.910Z,85.00
2022-08-19T15:41:27.837Z,85.00
2022-08-19T15:43:27.964Z,85.00
2022-08-19T15:47:54.030Z,85.00
2022-08-19T15:49:56.686Z,85.00
2022-08-19T15:51:53.926Z,85.00
2022-08-19T15:53:53.908Z,85.00
2022-08-19T15:55:53.991Z,85.00
2022-08-19T15:57:54.117Z,85.00
2022-08-19T15:59:53.916Z,85.00
2022-08-19T16:01:53.945Z,85.00
2022-08-19T16:03:53.937Z,85.00
2022-08-19T16:05:53.958Z,85.00
2022-08-19T16:07:54.113Z,85.00
2022-08-19T16:09:53.909Z,85.00
2022-08-19T16:11:56.841Z,85.00
2022-08-19T16:13:54.031Z,85.00
2022-08-19T16:15:54.010Z,85.00
2022-08-19T16:17:56.525Z,85.00
2022-08-19T16:19:53.952Z,85.00
2022-08-19T16:21:53.931Z,85.00
2022-08-19T16:23:53.903Z,85.00
2022-08-19T16:25:53.912Z,85.00
2022-08-19T16:28:07.483Z,85.00
2022-08-19T16:29:53.922Z,85.00
2022-08-19T16:31:53.978Z,85.00
2022-08-19T16:33:53.978Z,85.00
2022-08-19T16:36:00.137Z,85.00
2022-08-19T16:37:54.061Z,85.00
2022-08-19T16:39:54.038Z,85.00
2022-08-19T16:41:54.077Z,85.00
2022-08-19T16:43:54.024Z,85.00
2022-08-19T16:45:54.008Z,85.00
2022-08-19T16:47:54.086Z,85.00
2022-08-19T16:49:55.472Z,85.00
2022-08-19T16:51:54.003Z,85.00
2022-08-19T16:53:54.035Z,85.00
2022-08-19T16:55:55.880Z,85.00
2022-08-19T16:57:54.168Z,85.00
2022-08-19T16:59:54.077Z,85.00
2022-08-19T17:01:54.048Z,85.00
2022-08-19T17:03:53.982Z,85.00
2022-08-19T17:05:54.236Z,85.00
2022-08-19T17:07:54.023Z,85.00
2022-08-19T17:09:54.034Z,85.00
2022-08-19T17:11:54.120Z,85.00
2022-08-19T17:13:54.175Z,85.00
2022-08-19T17:15:53.972Z,85.00
2022-08-19T17:17:54.121Z,85.00
2022-08-19T17:19:54.016Z,85.00
2022-08-19T17:21:54.041Z,85.00
2022-08-19T17:23:54.008Z,85.00
2022-08-19T17:25:54.076Z,85.00
2022-08-19T17:27:54.148Z,85.00
2022-08-19T17:29:54.047Z,85.00
2022-08-19T17:31:53.979Z,85.00
2022-08-19T17:33:54.944Z,85.00
2022-08-19T17:35:54.036Z,85.00
2022-08-19T17:37:54.154Z,85.00
2022-08-19T17:39:54.163Z,85.00
2022-08-19T17:41:54.050Z,85.00
2022-08-19T17:43:54.058Z,85.00
2022-08-19T17:45:53.991Z,85.00
2022-08-19T17:47:54.208Z,85.00
2022-08-19T17:50:24.012Z,85.00
2022-08-19T17:52:24.047Z,85.00
2022-08-19T17:54:24.045Z,85.00
2022-08-19T17:56:24.170Z,85.00
2022-08-19T17:58:24.066Z,85.00
2022-08-19T18:00:24.143Z,85.00
2022-08-19T18:02:24.101Z,85.00
2022-08-19T18:04:24.122Z,85.00
2022-08-19T18:06:24.031Z,85.00
2022-08-19T18:08:24.046Z,85.00
2022-08-19T18:10:24.105Z,85.00
2022-08-19T18:12:24.080Z,85.00
2022-08-19T18:14:24.079Z,85.00
2022-08-19T18:16:23.987Z,85.00
2022-08-19T18:18:24.123Z,85.00
2022-08-19T18:20:24.066Z,85.00
2022-08-19T18:22:24.051Z,85.00
2022-08-19T18:24:24.058Z,85.00
2022-08-19T18:26:24.097Z,85.00
2022-08-19T18:28:24.091Z,85.00
2022-08-19T18:30:24.142Z,85.00
2022-08-19T18:32:24.276Z,85.00
2022-08-19T18:34:24.129Z,85.00
2022-08-19T18:36:37.441Z,85.00
2022-08-19T18:38:24.047Z,85.00
2022-08-19T18:40:24.139Z,85.00
2022-08-19T18:42:24.116Z,85.00
2022-08-19T18:44:24.112Z,85.00
2022-08-19T18:46:24.066Z,85.00
2022-08-19T18:48:27.464Z,85.00
2022-08-19T18:50:24.076Z,85.00
2022-08-19T18:52:24.042Z,85.00
2022-08-19T18:54:24.092Z,85.00
2022-08-19T18:56:24.103Z,85.00
2022-08-19T18:58:26.176Z,85.00
2022-08-19T19:00:24.123Z,85.00
2022-08-19T19:02:24.170Z,85.00
2022-08-19T19:04:24.151Z,85.00
2022-08-19T19:06:24.090Z,85.00
2022-08-19T19:08:27.367Z,85.00
2022-08-19T19:10:24.090Z,85.00
2022-08-19T19:12:24.125Z,85.00
2022-08-19T19:14:47.679Z,85.00
2022-08-19T19:16:24.712Z,85.00
2022-08-19T19:18:24.175Z,85.00
2022-08-19T19:20:24.167Z,85.00
2022-08-19T19:22:24.108Z,85.00
2022-08-19T19:24:24.101Z,85.00
2022-08-19T19:26:24.095Z,85.00
2022-08-19T19:28:24.147Z,85.00
2022-08-19T19:30:24.148Z,85.00
2022-08-19T19:32:24.081Z,85.00
2022-08-19T19:34:29.484Z,85.00
2022-08-19T19:36:24.169Z,85.00
2022-08-19T19:38:24.085Z,85.00
2022-08-19T19:40:24.154Z,84.00
2022-08-19T19:42:24.109Z,84.00
2022-08-19T19:44:30.658Z,84.00
2022-08-19T19:46:24.079Z,84.00
2022-08-19T19:48:24.073Z,84.00
2022-08-19T19:50:24.186Z,84.00
2022-08-19T19:52:54.093Z,84.00
2022-08-19T19:54:54.073Z,84.00
2022-08-19T19:56:54.136Z,84.00
2022-08-19T19:58:54.141Z,84.00
2022-08-19T20:00:54.189Z,84.00
2022-08-19T20:02:54.211Z,84.00
2022-08-19T20:04:54.173Z,84.00
2022-08-19T20:06:54.193Z,84.00
2022-08-19T20:08:54.151Z,84.00
2022-08-19T20:10:54.117Z,84.00
2022-08-19T20:12:54.122Z,84.00
2022-08-19T20:14:54.203Z,84.00
2022-08-19T20:16:54.202Z,84.00
2022-08-19T20:18:57.061Z,84.00
2022-08-19T20:20:54.209Z,84.00
2022-08-19T20:22:54.105Z,84.00
2022-08-19T20:24:54.160Z,84.00
2022-08-19T20:26:54.133Z,84.00
2022-08-19T20:29:05.318Z,84.00
2022-08-19T20:30:54.157Z,84.00
2022-08-19T20:32:54.182Z,84.00
2022-08-19T20:34:54.204Z,84.00
2022-08-19T20:36:54.226Z,84.00
2022-08-19T20:38:54.122Z,84.00
2022-08-19T20:40:54.141Z,84.00
2022-08-19T20:42:54.144Z,84.00
2022-08-19T20:44:54.160Z,84.00
2022-08-19T20:46:54.950Z,84.00
2022-08-19T20:48:54.226Z,84.00
2022-08-19T20:50:54.213Z,84.00
2022-08-19T20:52:54.246Z,84.00
2022-08-19T20:54:54.163Z,84.00
2022-08-19T20:56:54.165Z,84.00
2022-08-19T20:58:59.338Z,84.00
2022-08-19T21:00:54.240Z,84.00
2022-08-19T21:02:54.203Z,84.00
2022-08-19T21:04:54.253Z,84.00
2022-08-19T21:06:54.241Z,84.00
2022-08-19T21:08:54.233Z,84.00
2022-08-19T21:10:54.120Z,84.00
2022-08-19T21:12:54.176Z,84.00
2022-08-19T21:14:54.164Z,84.00
2022-08-19T21:16:54.111Z,84.00
2022-08-19T21:18:54.149Z,84.00
2022-08-19T21:20:54.147Z,84.00
2022-08-19T21:22:54.241Z,84.00
2022-08-19T21:24:54.201Z,84.00
2022-08-19T21:26:54.199Z,84.00
2022-08-19T21:28:54.311Z,84.00
2022-08-19T21:30:54.245Z,84.00
2022-08-19T21:32:54.239Z,84.00
2022-08-19T21:34:54.269Z,84.00
2022-08-19T21:36:54.292Z,84.00
2022-08-19T21:38:54.133Z,84.00
2022-08-19T21:40:54.173Z,84.00
2022-08-19T21:42:54.171Z,84.00
2022-08-19T21:44:54.237Z,84.00
2022-08-19T21:46:54.150Z,84.00
2022-08-19T21:48:54.149Z,84.00
2022-08-19T21:50:54.262Z,84.00
2022-08-19T21:55:24.241Z,84.00
2022-08-19T21:57:24.247Z,84.00
2022-08-19T21:59:24.248Z,84.00
2022-08-19T22:01:24.280Z,84.00
2022-08-19T22:03:24.294Z,84.00
2022-08-19T22:05:24.682Z,84.00
2022-08-19T22:07:24.311Z,84.00
2022-08-19T22:09:25.817Z,84.00
2022-08-19T22:11:24.198Z,84.00
2022-08-19T22:13:24.202Z,84.00
2022-08-19T22:15:24.349Z,84.00
2022-08-19T22:17:24.274Z,84.00
2022-08-19T22:19:24.292Z,84.00
2022-08-19T22:21:39.785Z,84.00
2022-08-19T22:23:24.328Z,84.00
2022-08-19T22:25:31.194Z,84.00
2022-08-19T22:27:24.175Z,84.00
2022-08-19T22:29:34.033Z,84.00
2022-08-19T22:31:24.241Z,84.00
2022-08-19T22:33:24.262Z,84.00
2022-08-19T22:35:24.346Z,84.00
2022-08-19T22:37:24.364Z,84.00
2022-08-19T22:39:24.248Z,84.00
2022-08-19T22:41:24.324Z,84.00
2022-08-19T22:43:24.245Z,84.00
2022-08-19T22:45:24.229Z,84.00
2022-08-19T22:47:24.206Z,84.00
2022-08-19T22:49:24.340Z,84.00
2022-08-19T22:51:24.286Z,84.00
2022-08-19T22:55:36.388Z,84.00
2022-08-19T22:57:36.412Z,84.00
2022-08-19T22:59:36.445Z,84.00
2022-08-19T23:01:36.489Z,84.00
2022-08-19T23:03:36.474Z,84.00
2022-08-19T23:05:37.079Z,84.00
2022-08-19T23:07:36.494Z,84.00
2022-08-19T23:09:36.702Z,84.00
2022-08-19T23:11:38.162Z,84.00
2022-08-19T23:13:36.447Z,84.00
2022-08-19T23:15:36.442Z,84.00
2022-08-19T23:17:36.476Z,84.00
2022-08-19T23:19:36.465Z,84.00
2022-08-19T23:21:36.461Z,84.00
2022-08-19T23:23:36.419Z,84.00
2022-08-19T23:25:36.384Z,84.00
2022-08-19T23:27:36.438Z,84.00
2022-08-19T23:29:36.466Z,84.00
2022-08-19T23:31:36.473Z,84.00
2022-08-19T23:33:50.576Z,84.00
2022-08-19T23:35:36.483Z,84.00
2022-08-19T23:37:36.501Z,84.00
2022-08-19T23:39:36.439Z,84.00
2022-08-19T23:41:36.419Z,84.00
2022-08-19T23:43:36.460Z,84.00
2022-08-19T23:45:36.461Z,84.00
2022-08-19T23:47:36.424Z,84.00
2022-08-19T23:49:36.487Z,84.00
2022-08-19T23:51:36.475Z,84.00
2022-08-19T23:53:36.422Z,84.00
2022-08-19T23:55:36.422Z,84.00
2022-08-19T23:57:36.428Z,84.00
2022-08-19T23:59:36.449Z,84.00
